createdAt,value
2017-12-16T00:00:54.194Z,99671.31
2017-12-16T00:03:22.722Z,99676.47
2017-12-16T00:05:51.421Z,99680.23
2017-12-16T00:08:19.691Z,99674.30
2017-12-16T00:10:47.998Z,99682.64
2017-12-16T00:13:16.427Z,99686.97
2017-12-16T00:15:44.855Z,99685.80
2017-12-16T00:18:13.223Z,99687.77
2017-12-16T00:20:41.642Z,99686.41
2017-12-16T00:23:09.891Z,99685.57
2017-12-16T00:25:38.254Z,99689.89
2017-12-16T00:28:06.688Z,99686.38
2017-12-16T00:30:35.199Z,99690.44
2017-12-16T00:33:03.479Z,99699.00
2017-12-16T00:35:31.759Z,99694.83
2017-12-16T00:38:00.199Z,99698.09
2017-12-16T00:40:28.622Z,99703.87
2017-12-16T00:42:56.960Z,99693.92
2017-12-16T00:45:25.290Z,99696.58
2017-12-16T00:47:53.731Z,99701.48
2017-12-16T00:50:22.051Z,99702.41
2017-12-16T00:52:50.313Z,99708.14
2017-12-16T00:55:18.603Z,99709.34
2017-12-16T00:57:47.063Z,99710.30
2017-12-16T01:00:15.554Z,99702.10
2017-12-16T01:02:43.844Z,99705.03
2017-12-16T01:05:12.336Z,99706.89
2017-12-16T01:07:40.628Z,99707.81
2017-12-16T01:10:09.055Z,99714.39
2017-12-16T01:12:37.527Z,99715.59
2017-12-16T01:15:05.799Z,99715.31
2017-12-16T01:17:34.108Z,99713.45
2017-12-16T01:20:02.407Z,99711.29
2017-12-16T01:22:30.692Z,99713.30
2017-12-16T01:24:58.952Z,99707.30
2017-12-16T01:27:27.279Z,99713.27
2017-12-16T01:29:55.807Z,99709.31
2017-12-16T01:32:24.101Z,99711.58
2017-12-16T01:39:09.321Z,99710.73
2017-12-16T01:41:37.626Z,99717.39
2017-12-16T01:44:05.912Z,99716.73
2017-12-16T01:46:34.388Z,99720.91
2017-12-16T01:49:02.797Z,99724.27
2017-12-16T01:51:31.275Z,99725.80
2017-12-16T01:53:59.535Z,99725.39
2017-12-16T01:56:27.871Z,99730.95
2017-12-16T01:58:56.122Z,99738.97
2017-12-16T02:01:24.697Z,99733.81
2017-12-16T02:03:52.987Z,99735.91
2017-12-16T02:06:21.308Z,99738.77
2017-12-16T02:08:49.646Z,99742.97
2017-12-16T02:11:18.070Z,99740.41
2017-12-16T02:13:46.319Z,99738.41
2017-12-16T02:16:14.652Z,99745.31
2017-12-16T02:18:42.972Z,99745.09
2017-12-16T02:21:11.623Z,99753.80
2017-12-16T02:23:39.935Z,99749.84
2017-12-16T02:26:08.207Z,99754.33
2017-12-16T02:28:36.471Z,99749.63
2017-12-16T02:31:04.828Z,99756.67
2017-12-16T02:33:33.173Z,99753.89
2017-12-16T02:36:01.605Z,99747.45
2017-12-16T02:38:30.103Z,99749.20
2017-12-16T02:40:58.392Z,99751.97
2017-12-16T02:43:26.879Z,99750.41
2017-12-16T02:45:55.151Z,99751.88
2017-12-16T02:48:23.407Z,99749.84
2017-12-16T02:50:51.741Z,99753.25
2017-12-16T02:53:20.071Z,99754.83
2017-12-16T02:55:48.503Z,99758.19
2017-12-16T02:58:16.755Z,99759.39
2017-12-16T03:00:45.028Z,99751.64
2017-12-16T03:03:13.503Z,99750.42
2017-12-16T03:05:41.865Z,99751.23
2017-12-16T03:08:10.144Z,99752.23
2017-12-16T03:10:38.448Z,99753.88
2017-12-16T03:13:06.683Z,99747.22
2017-12-16T03:15:35.000Z,99753.38
2017-12-16T03:18:03.324Z,99750.33
2017-12-16T03:20:31.643Z,99752.53
2017-12-16T03:22:59.951Z,99752.38
2017-12-16T03:25:28.234Z,99747.26
2017-12-16T03:27:56.522Z,99747.19
2017-12-16T03:30:24.960Z,99746.45
2017-12-16T03:32:53.217Z,99744.88
2017-12-16T03:35:21.523Z,99745.28
2017-12-16T03:37:49.834Z,99761.68
2017-12-16T03:40:18.538Z,99767.50
2017-12-16T03:42:46.826Z,99762.12
2017-12-16T03:45:15.152Z,99768.92
2017-12-16T03:47:43.435Z,99772.52
2017-12-16T03:50:11.723Z,99769.15
2017-12-16T03:52:40.058Z,99768.16
2017-12-16T03:55:08.373Z,99769.55
2017-12-16T03:57:36.614Z,99770.02
2017-12-16T04:00:04.892Z,99775.88
2017-12-16T04:02:33.339Z,99764.64
2017-12-16T04:05:01.631Z,99766.36
2017-12-16T04:07:30.127Z,99763.80
2017-12-16T04:09:58.375Z,99770.28
2017-12-16T04:12:26.881Z,99773.58
2017-12-16T04:14:55.145Z,99760.69
2017-12-16T04:17:23.479Z,99768.89
2017-12-16T04:19:51.811Z,99765.45
2017-12-16T04:22:20.199Z,99767.17
2017-12-16T04:24:48.468Z,99771.89
2017-12-16T04:27:16.776Z,99773.31
2017-12-16T04:29:45.183Z,99767.97
2017-12-16T04:32:13.493Z,99773.31
2017-12-16T04:34:41.844Z,99773.05
2017-12-16T04:37:10.168Z,99770.13
2017-12-16T04:39:38.643Z,99770.93
2017-12-16T04:42:06.971Z,99769.94
2017-12-16T04:44:35.219Z,99777.41
2017-12-16T04:47:03.583Z,99774.41
2017-12-16T04:49:31.875Z,99780.23
2017-12-16T04:52:00.355Z,99777.45
2017-12-16T04:54:28.725Z,99770.68
2017-12-16T04:56:57.024Z,99773.83
2017-12-16T04:59:25.315Z,99776.69
2017-12-16T05:04:49.461Z,99772.73
2017-12-16T05:07:18.310Z,99775.44
2017-12-16T05:09:47.086Z,99776.78
2017-12-16T05:12:15.708Z,99773.95
2017-12-16T05:14:44.396Z,99779.23
2017-12-16T05:17:12.989Z,99784.08
2017-12-16T05:19:41.772Z,99781.25
2017-12-16T05:22:10.404Z,99782.58
2017-12-16T05:24:39.126Z,99788.53
2017-12-16T05:27:07.707Z,99784.36
2017-12-16T05:29:36.461Z,99787.33
2017-12-16T05:32:05.443Z,99786.97
2017-12-16T05:34:33.888Z,99788.13
2017-12-16T05:37:02.477Z,99792.27
2017-12-16T05:39:31.241Z,99791.02
2017-12-16T05:41:59.936Z,99794.45
2017-12-16T05:44:28.697Z,99792.70
2017-12-16T05:46:57.528Z,99803.70
2017-12-16T05:49:29.125Z,99806.73
2017-12-16T05:51:57.737Z,99801.22
2017-12-16T05:54:26.321Z,99803.50
2017-12-16T05:56:55.160Z,99802.63
2017-12-16T05:59:23.819Z,99811.95
2017-12-16T06:01:54.291Z,99813.13
2017-12-16T06:04:23.028Z,99807.89
2017-12-16T06:06:51.626Z,99804.89
2017-12-16T06:09:20.237Z,99805.11
2017-12-16T06:11:49.011Z,99807.89
2017-12-16T06:14:17.582Z,99806.02
2017-12-16T06:16:46.360Z,99810.19
2017-12-16T06:19:14.941Z,99818.13
2017-12-16T06:21:43.657Z,99822.43
2017-12-16T06:24:12.311Z,99815.84
2017-12-16T06:26:41.013Z,99820.28
2017-12-16T06:29:09.600Z,99822.70
2017-12-16T06:31:38.261Z,99819.73
2017-12-16T06:34:06.889Z,99816.95
2017-12-16T06:36:35.574Z,99826.64
2017-12-16T06:39:04.343Z,99828.27
2017-12-16T06:41:32.974Z,99826.95
2017-12-16T06:44:01.660Z,99827.58
2017-12-16T06:46:30.476Z,99822.75
2017-12-16T06:48:59.029Z,99829.34
2017-12-16T06:51:27.683Z,99830.52
2017-12-16T06:53:56.774Z,99831.91
2017-12-16T06:56:25.352Z,99831.32
2017-12-16T06:58:54.095Z,99832.34
2017-12-16T07:01:23.018Z,99836.34
2017-12-16T07:03:51.768Z,99851.28
2017-12-16T07:06:20.908Z,99852.70
2017-12-16T07:08:49.738Z,99851.28
2017-12-16T07:11:18.498Z,99855.89
2017-12-16T07:13:47.228Z,99860.47
2017-12-16T07:16:16.182Z,99868.27
2017-12-16T07:18:44.902Z,99872.21
2017-12-16T07:21:13.689Z,99872.21
2017-12-16T07:23:43.064Z,99872.04
2017-12-16T07:26:12.963Z,99873.47
2017-12-16T07:28:42.030Z,99878.45
2017-12-16T07:31:12.545Z,99886.22
2017-12-16T07:33:42.050Z,99881.09
2017-12-16T07:36:10.764Z,99885.88
2017-12-16T07:38:39.668Z,99891.67
2017-12-16T07:41:08.509Z,99894.50
2017-12-16T07:43:37.328Z,99898.27
2017-12-16T07:46:05.893Z,99891.72
2017-12-16T07:48:34.511Z,99890.77
2017-12-16T07:51:03.052Z,99899.34
2017-12-16T07:53:31.586Z,99901.94
2017-12-16T07:56:00.266Z,99909.70
2017-12-16T07:58:28.888Z,99906.70
2017-12-16T08:00:57.903Z,99910.14
2017-12-16T08:03:35.229Z,99910.73
2017-12-16T08:06:04.000Z,99915.45
2017-12-16T08:08:32.853Z,99918.05
2017-12-16T08:11:01.756Z,99923.69
2017-12-16T08:13:30.661Z,99926.84
2017-12-16T08:15:59.152Z,99930.25
2017-12-16T08:18:27.820Z,99934.25
2017-12-16T08:20:56.335Z,99935.64
2017-12-16T08:23:26.029Z,99936.04
2017-12-16T08:25:54.852Z,99947.58
2017-12-16T08:28:23.394Z,99946.80
2017-12-16T08:30:52.053Z,99955.38
2017-12-16T08:33:20.683Z,99954.77
2017-12-16T08:35:49.476Z,99971.45
2017-12-16T08:38:17.946Z,99975.45
2017-12-16T08:40:46.561Z,99977.23
2017-12-16T08:43:15.258Z,99988.78
2017-12-16T08:45:43.959Z,99987.98
2017-12-16T08:48:12.508Z,99991.56
2017-12-16T08:50:41.189Z,99986.00
2017-12-16T08:53:09.715Z,99993.14
2017-12-16T08:55:39.752Z,99993.41
2017-12-16T08:58:08.605Z,100002.46
2017-12-16T09:00:37.302Z,100002.97
2017-12-16T09:03:05.768Z,100003.95
2017-12-16T09:05:35.009Z,100009.92
2017-12-16T09:08:03.686Z,100013.70
2017-12-16T09:10:32.746Z,100018.91
2017-12-16T09:13:01.672Z,100018.31
2017-12-16T09:15:30.599Z,100018.31
2017-12-16T09:17:59.273Z,100023.48
2017-12-16T09:20:28.645Z,100019.35
2017-12-16T09:22:58.187Z,100021.19
2017-12-16T09:25:26.733Z,100023.61
2017-12-16T09:27:55.621Z,100018.45
2017-12-16T09:30:24.529Z,100026.80
2017-12-16T09:32:53.429Z,100028.81
2017-12-16T09:35:22.169Z,100037.39
2017-12-16T09:37:50.632Z,100039.19
2017-12-16T09:40:19.468Z,100028.38
2017-12-16T09:42:48.305Z,100029.03
2017-12-16T09:45:17.295Z,100029.38
2017-12-16T09:47:46.154Z,100027.09
2017-12-16T09:50:15.760Z,100027.64
2017-12-16T09:52:44.257Z,100028.73
2017-12-16T09:55:12.853Z,100027.83
2017-12-16T09:57:41.550Z,100020.31
2017-12-16T10:00:10.392Z,100016.68
2017-12-16T10:02:38.946Z,100030.23
2017-12-16T10:05:07.591Z,100028.80
2017-12-16T10:07:36.464Z,100029.42
2017-12-16T10:10:05.212Z,100021.66
2017-12-16T10:12:33.701Z,100025.25
2017-12-16T10:15:02.356Z,100031.94
2017-12-16T10:17:31.113Z,100028.31
2017-12-16T10:19:59.720Z,100029.08
2017-12-16T10:22:28.576Z,100027.06
2017-12-16T10:24:57.197Z,100027.06
2017-12-16T10:27:26.044Z,100029.59
2017-12-16T10:29:55.097Z,100031.56
2017-12-16T10:32:23.832Z,100025.98
2017-12-16T10:34:52.534Z,100029.68
2017-12-16T10:37:21.186Z,100027.29
2017-12-16T10:39:49.900Z,100031.88
2017-12-16T10:42:18.969Z,100027.34
2017-12-16T10:44:47.502Z,100035.02
2017-12-16T10:47:16.145Z,100038.65
2017-12-16T10:49:44.796Z,100041.61
2017-12-16T10:52:13.732Z,100036.19
2017-12-16T10:54:42.344Z,100048.17
2017-12-16T10:57:11.073Z,100048.58
2017-12-16T10:59:40.308Z,100056.30
2017-12-16T11:02:09.518Z,100055.77
2017-12-16T11:04:39.550Z,100064.30
2017-12-16T11:07:09.232Z,100061.92
2017-12-16T11:09:37.851Z,100073.50
2017-12-16T11:12:06.401Z,100074.66
2017-12-16T11:14:35.087Z,100076.81
2017-12-16T11:17:03.888Z,100076.23
2017-12-16T11:19:32.562Z,100077.23
2017-12-16T11:22:01.260Z,100074.89
2017-12-16T11:24:29.828Z,100079.69
2017-12-16T11:26:58.521Z,100080.68
2017-12-16T11:29:27.128Z,100080.82
2017-12-16T11:31:55.675Z,100085.40
2017-12-16T11:34:24.369Z,100084.63
2017-12-16T11:36:52.999Z,100087.23
2017-12-16T11:39:22.197Z,100088.98
2017-12-16T11:41:50.974Z,100090.78
2017-12-16T11:44:19.885Z,100095.37
2017-12-16T11:46:48.794Z,100091.77
2017-12-16T11:49:17.438Z,100094.59
2017-12-16T11:51:46.137Z,100093.61
2017-12-16T11:54:14.670Z,100095.37
2017-12-16T11:56:43.386Z,100100.17
2017-12-16T11:59:11.926Z,100097.20
2017-12-16T12:01:41.033Z,100102.55
2017-12-16T12:04:15.474Z,100104.12
2017-12-16T12:06:44.251Z,100109.69
2017-12-16T12:09:12.749Z,100105.33
2017-12-16T12:11:41.412Z,100109.69
2017-12-16T12:14:10.052Z,100105.34
2017-12-16T12:16:38.837Z,100114.14
2017-12-16T12:19:07.286Z,100114.31
2017-12-16T12:21:35.820Z,100117.10
2017-12-16T12:24:04.600Z,100112.70
2017-12-16T12:26:33.431Z,100117.45
2017-12-16T12:29:01.903Z,100117.28
2017-12-16T12:31:30.657Z,100116.88
2017-12-16T12:33:59.624Z,100121.23
2017-12-16T12:36:28.136Z,100120.06
2017-12-16T12:38:56.932Z,100124.06
2017-12-16T12:41:25.542Z,100120.66
2017-12-16T12:43:54.165Z,100121.85
2017-12-16T12:46:22.959Z,100128.83
2017-12-16T12:48:51.673Z,100131.83
2017-12-16T12:51:20.514Z,100141.80
2017-12-16T12:53:49.072Z,100140.05
2017-12-16T12:56:17.863Z,100143.15
2017-12-16T12:58:46.773Z,100142.92
2017-12-16T13:01:15.423Z,100137.80
2017-12-16T13:03:44.004Z,100143.95
2017-12-16T13:06:12.509Z,100143.15
2017-12-16T13:08:41.481Z,100146.56
2017-12-16T13:11:10.252Z,100143.95
2017-12-16T13:13:40.067Z,100148.13
2017-12-16T13:16:08.740Z,100150.91
2017-12-16T13:18:37.316Z,100158.14
2017-12-16T13:21:06.256Z,100154.73
2017-12-16T13:23:34.894Z,100161.91
2017-12-16T13:26:03.626Z,100168.02
2017-12-16T13:28:32.121Z,100164.08
2017-12-16T13:31:00.833Z,100169.42
2017-12-16T13:33:30.306Z,100166.45
2017-12-16T13:35:59.033Z,100172.83
2017-12-16T13:38:27.960Z,100171.62
2017-12-16T13:40:56.669Z,100174.23
2017-12-16T13:43:25.256Z,100179.80
2017-12-16T13:45:54.088Z,100179.03
2017-12-16T13:48:22.724Z,100185.95
2017-12-16T13:50:51.814Z,100184.14
2017-12-16T13:53:20.664Z,100188.14
2017-12-16T13:55:49.519Z,100189.95
2017-12-16T13:58:18.690Z,100195.34
2017-12-16T14:00:47.400Z,100193.77
2017-12-16T14:03:16.212Z,100192.66
2017-12-16T14:05:45.328Z,100194.44
2017-12-16T14:08:14.127Z,100192.42
2017-12-16T14:10:42.632Z,100201.80
2017-12-16T14:13:11.117Z,100200.00
2017-12-16T14:15:39.865Z,100203.20
2017-12-16T14:18:08.509Z,100203.25
2017-12-16T14:20:37.133Z,100211.91
2017-12-16T14:23:05.833Z,100217.89
2017-12-16T14:25:34.429Z,100220.28
2017-12-16T14:28:03.000Z,100223.00
2017-12-16T14:30:31.989Z,100221.61
2017-12-16T14:33:00.866Z,100222.75
2017-12-16T14:35:29.565Z,100221.22
2017-12-16T14:37:58.256Z,100232.71
2017-12-16T14:40:26.865Z,100232.61
2017-12-16T14:42:56.252Z,100241.67
2017-12-16T14:45:25.000Z,100244.59
2017-12-16T14:47:53.580Z,100235.31
2017-12-16T14:50:22.180Z,100249.64
2017-12-16T14:52:50.965Z,100243.98
2017-12-16T14:55:19.598Z,100247.63
2017-12-16T14:57:48.332Z,100245.66
2017-12-16T15:00:16.881Z,100252.67
2017-12-16T15:02:45.560Z,100259.59
2017-12-16T15:05:14.227Z,100248.53
2017-12-16T15:07:43.012Z,100252.48
2017-12-16T15:10:11.688Z,100262.69
2017-12-16T15:12:40.292Z,100266.86
2017-12-16T15:15:09.232Z,100267.22
2017-12-16T15:17:38.020Z,100276.92
2017-12-16T15:20:06.664Z,100279.75
2017-12-16T15:22:35.369Z,100284.34
2017-12-16T15:25:03.956Z,100285.09
2017-12-16T15:27:32.576Z,100284.47
2017-12-16T15:30:01.077Z,100285.05
2017-12-16T15:32:29.760Z,100284.81
2017-12-16T15:34:58.432Z,100286.22
2017-12-16T15:37:27.542Z,100283.65
2017-12-16T15:39:56.197Z,100289.98
2017-12-16T15:42:25.118Z,100289.58
2017-12-16T15:44:53.889Z,100291.33
2017-12-16T15:47:22.849Z,100291.37
2017-12-16T15:49:51.548Z,100294.11
2017-12-16T15:52:20.264Z,100293.77
2017-12-16T15:54:49.416Z,100295.95
2017-12-16T15:57:19.091Z,100304.53
2017-12-16T15:59:48.020Z,100316.57
2017-12-16T16:02:16.976Z,100312.57
2017-12-16T16:04:53.034Z,100312.52
2017-12-16T16:07:21.668Z,100314.48
2017-12-16T16:09:50.268Z,100317.50
2017-12-16T16:12:19.092Z,100321.14
2017-12-16T16:14:47.897Z,100319.13
2017-12-16T16:17:16.504Z,100329.55
2017-12-16T16:19:44.984Z,100328.87
2017-12-16T16:22:13.704Z,100333.45
2017-12-16T16:24:42.664Z,100335.95
2017-12-16T16:27:11.210Z,100342.11
2017-12-16T16:29:40.136Z,100344.70
2017-12-16T16:32:08.942Z,100344.31
2017-12-16T16:34:37.592Z,100359.45
2017-12-16T16:37:06.335Z,100363.38
2017-12-16T16:39:39.317Z,100367.91
2017-12-16T16:42:08.432Z,100370.52
2017-12-16T16:44:37.074Z,100375.05
2017-12-16T16:47:06.190Z,100373.20
2017-12-16T16:49:34.897Z,100376.04
2017-12-16T16:52:03.552Z,100375.05
2017-12-16T16:54:32.224Z,100377.20
2017-12-16T16:57:00.948Z,100374.42
2017-12-16T16:59:29.492Z,100384.98
2017-12-16T17:01:59.581Z,100390.55
2017-12-16T17:04:28.213Z,100381.20
2017-12-16T17:06:57.061Z,100381.38
2017-12-16T17:09:25.700Z,100382.59
2017-12-16T17:11:54.435Z,100384.73
2017-12-16T17:14:25.144Z,100390.53
2017-12-16T17:16:54.233Z,100397.80
2017-12-16T17:19:22.993Z,100400.45
2017-12-16T17:21:51.692Z,100397.84
2017-12-16T17:24:20.512Z,100399.06
2017-12-16T17:26:49.072Z,100403.06
2017-12-16T17:29:17.989Z,100400.67
2017-12-16T17:31:46.642Z,100400.63
2017-12-16T17:34:15.342Z,100408.12
2017-12-16T17:36:44.156Z,100408.34
2017-12-16T17:39:12.930Z,100414.73
2017-12-16T17:41:41.793Z,100414.73
2017-12-16T17:44:10.505Z,100415.47
2017-12-16T17:46:39.262Z,100425.62
2017-12-16T17:49:07.712Z,100427.01
2017-12-16T17:51:36.397Z,100430.37
2017-12-16T17:54:05.059Z,100430.37
2017-12-16T17:56:33.762Z,100430.15
2017-12-16T17:59:02.216Z,100431.54
2017-12-16T18:01:31.487Z,100431.20
2017-12-16T18:04:00.281Z,100434.55
2017-12-16T18:06:29.888Z,100439.94
2017-12-16T18:08:58.416Z,100444.31
2017-12-16T18:11:27.232Z,100438.73
2017-12-16T18:13:55.920Z,100449.86
2017-12-16T18:16:24.913Z,100447.68
2017-12-16T18:18:53.589Z,100452.83
2017-12-16T18:21:23.501Z,100456.14
2017-12-16T18:23:52.057Z,100461.18
2017-12-16T18:26:20.757Z,100463.38
2017-12-16T18:28:49.422Z,100461.42
2017-12-16T18:31:18.100Z,100461.60
2017-12-16T18:33:46.873Z,100465.98
2017-12-16T18:36:15.525Z,100475.34
2017-12-16T18:38:44.108Z,100480.10
2017-12-16T18:41:12.690Z,100478.52
2017-12-16T18:43:41.586Z,100478.23
2017-12-16T18:46:10.895Z,100485.95
2017-12-16T18:48:39.920Z,100484.16
2017-12-16T18:51:09.327Z,100488.38
2017-12-16T18:53:38.627Z,100488.72
2017-12-16T18:56:07.268Z,100490.69
2017-12-16T18:58:36.005Z,100496.28
2017-12-16T19:01:05.084Z,100500.84
2017-12-16T19:03:33.803Z,100496.38
2017-12-16T19:06:02.610Z,100497.31
2017-12-16T19:08:31.268Z,100501.19
2017-12-16T19:11:00.581Z,100504.08
2017-12-16T19:13:29.229Z,100506.98
2017-12-16T19:15:57.864Z,100510.83
2017-12-16T19:18:26.481Z,100506.77
2017-12-16T19:20:55.167Z,100511.94
2017-12-16T19:23:24.062Z,100515.47
2017-12-16T19:25:53.047Z,100515.39
2017-12-16T19:28:21.869Z,100516.50
2017-12-16T19:30:55.052Z,100522.39
2017-12-16T19:33:24.465Z,100517.91
2017-12-16T19:35:53.632Z,100521.04
2017-12-16T19:38:22.384Z,100524.80
2017-12-16T19:40:51.101Z,100526.74
2017-12-16T19:43:21.271Z,100528.52
2017-12-16T19:45:50.313Z,100534.73
2017-12-16T19:48:19.011Z,100540.88
2017-12-16T19:50:47.494Z,100540.12
2017-12-16T19:53:18.674Z,100543.27
2017-12-16T19:55:48.796Z,100544.42
2017-12-16T19:58:17.537Z,100537.11
2017-12-16T20:00:46.502Z,100540.88
2017-12-16T20:03:15.380Z,100539.27
2017-12-16T20:05:43.919Z,100548.59
2017-12-16T20:08:12.619Z,100549.98
2017-12-16T20:10:42.401Z,100545.00
2017-12-16T20:13:11.104Z,100554.72
2017-12-16T20:15:39.826Z,100552.28
2017-12-16T20:18:08.651Z,100558.16
2017-12-16T20:20:37.161Z,100548.33
2017-12-16T20:23:06.403Z,100561.76
2017-12-16T20:25:36.359Z,100563.11
2017-12-16T20:28:05.114Z,100562.07
2017-12-16T20:30:34.749Z,100563.33
2017-12-16T20:33:03.531Z,100568.64
2017-12-16T20:35:32.032Z,100573.16
2017-12-16T20:38:00.815Z,100576.09
2017-12-16T20:40:29.394Z,100576.45
2017-12-16T20:42:57.991Z,100586.41
2017-12-16T20:45:26.759Z,100585.95
2017-12-16T20:47:55.337Z,100587.78
2017-12-16T20:50:23.920Z,100589.90
2017-12-16T20:52:52.531Z,100586.60
2017-12-16T20:55:21.236Z,100586.80
2017-12-16T20:57:49.841Z,100588.94
2017-12-16T21:00:18.644Z,100591.62
2017-12-16T21:02:47.524Z,100594.66
2017-12-16T21:05:16.385Z,100597.13
2017-12-16T21:07:46.264Z,100594.95
2017-12-16T21:10:15.052Z,100598.17
2017-12-16T21:12:43.567Z,100602.50
2017-12-16T21:15:12.481Z,100603.47
2017-12-16T21:17:41.088Z,100604.45
2017-12-16T21:20:09.993Z,100608.70
2017-12-16T21:22:39.212Z,100603.87
2017-12-16T21:25:07.946Z,100604.88
2017-12-16T21:27:36.853Z,100613.41
2017-12-16T21:30:05.662Z,100608.83
2017-12-16T21:32:34.263Z,100618.53
2017-12-16T21:35:02.825Z,100620.09
2017-12-16T21:37:33.809Z,100619.34
2017-12-16T21:40:03.328Z,100619.60
2017-12-16T21:42:31.990Z,100630.50
2017-12-16T21:45:00.930Z,100629.66
2017-12-16T21:47:29.829Z,100630.89
2017-12-16T21:49:58.776Z,100632.55
2017-12-16T21:52:27.349Z,100634.19
2017-12-16T21:54:56.265Z,100628.83
2017-12-16T21:57:24.850Z,100631.98
2017-12-16T21:59:53.512Z,100631.66
2017-12-16T22:02:22.166Z,100634.58
2017-12-16T22:04:52.659Z,100639.84
2017-12-16T22:07:21.366Z,100642.19
2017-12-16T22:09:50.152Z,100635.75
2017-12-16T22:12:18.681Z,100641.55
2017-12-16T22:14:47.688Z,100647.05
2017-12-16T22:17:17.710Z,100643.13
2017-12-16T22:19:46.806Z,100646.89
2017-12-16T22:22:15.392Z,100649.06
2017-12-16T22:24:44.114Z,100650.86
2017-12-16T22:27:12.908Z,100659.77
2017-12-16T22:29:41.564Z,100652.02
2017-12-16T22:32:10.301Z,100656.01
2017-12-16T22:34:39.338Z,100662.09
2017-12-16T22:37:07.920Z,100669.20
2017-12-16T22:39:38.752Z,100676.39
2017-12-16T22:42:07.396Z,100671.06
2017-12-16T22:44:35.964Z,100673.38
2017-12-16T22:47:04.635Z,100662.31
2017-12-16T22:49:33.385Z,100668.80
2017-12-16T22:52:02.214Z,100670.89
2017-12-16T22:54:31.177Z,100677.47
2017-12-16T22:57:00.014Z,100675.22
2017-12-16T22:59:28.633Z,100681.52
2017-12-16T23:01:57.259Z,100680.87
2017-12-16T23:04:26.348Z,100674.36
2017-12-16T23:06:55.100Z,100675.70
2017-12-16T23:09:23.756Z,100681.27
2017-12-16T23:11:52.638Z,100680.72
2017-12-16T23:14:21.500Z,100684.08
2017-12-16T23:16:50.338Z,100685.13
2017-12-16T23:19:18.886Z,100684.14
2017-12-16T23:21:47.754Z,100690.86
2017-12-16T23:24:16.338Z,100693.56
2017-12-16T23:26:44.881Z,100699.19
2017-12-16T23:29:13.639Z,100695.08
2017-12-16T23:31:42.842Z,100696.41
2017-12-16T23:34:11.352Z,100694.47
2017-12-16T23:36:40.440Z,100692.09
2017-12-16T23:39:09.168Z,100691.11
2017-12-16T23:41:37.999Z,100692.91
2017-12-16T23:44:06.570Z,100681.02
2017-12-16T23:46:35.300Z,100691.17
2017-12-16T23:49:03.914Z,100696.33
2017-12-16T23:51:32.451Z,100696.09
2017-12-16T23:54:01.186Z,100695.20
2017-12-16T23:56:29.916Z,100698.39
2017-12-16T23:58:58.622Z,100699.78
